sensor_id;sensor_type;location;lat;lon;timestamp;pressure;altitude;pressure_sealevel;temperature;humidity
37068;BME280;22982;42.848;25.468;2022-09-09T00:00:20;96344.28;;;13.74;100.00
37068;BME280;22982;42.848;25.468;2022-09-09T00:05:31;96356.69;;;13.85;100.00
37068;BME280;22982;42.848;25.468;2022-09-09T00:10:39;96349.16;;;13.68;100.00
37068;BME280;22982;42.848;25.468;2022-09-09T00:15:54;96364.25;;;13.90;100.00
37068;BME280;22982;42.848;25.468;2022-09-09T00:21:10;96359.91;;;13.65;100.00
37068;BME280;22982;42.848;25.468;2022-09-09T00:31:34;96352.72;;;13.67;100.00
37068;BME280;22982;42.848;25.468;2022-09-09T00:36:40;96339.69;;;13.52;100.00
37068;BME280;22982;42.848;25.468;2022-09-09T00:47:39;96357.59;;;13.60;100.00
37068;BME280;22982;42.848;25.468;2022-09-09T00:53:10;96348.84;;;13.59;100.00
37068;BME280;22982;42.848;25.468;2022-09-09T00:58:16;96330.00;;;13.53;100.00
37068;BME280;22982;42.848;25.468;2022-09-09T01:14:00;96351.53;;;13.34;100.00
37068;BME280;22982;42.848;25.468;2022-09-09T01:19:09;96332.56;;;13.29;100.00
37068;BME280;22982;42.848;25.468;2022-09-09T01:24:40;96360.47;;;13.57;100.00
37068;BME280;22982;42.848;25.468;2022-09-09T01:29:53;96341.78;;;13.60;100.00
37068;BME280;22982;42.848;25.468;2022-09-09T01:34:55;96344.88;;;13.54;100.00
37068;BME280;22982;42.848;25.468;2022-09-09T01:39:58;96328.97;;;13.30;100.00
37068;BME280;22982;42.848;25.468;2022-09-09T01:45:00;96322.13;;;13.27;100.00
37068;BME280;22982;42.848;25.468;2022-09-09T01:50:03;96347.94;;;13.35;100.00
37068;BME280;22982;42.848;25.468;2022-09-09T01:55:07;96333.94;;;13.34;100.00
37068;BME280;22982;42.848;25.468;2022-09-09T02:00:14;96328.38;;;13.39;100.00
37068;BME280;22982;42.848;25.468;2022-09-09T02:05:39;96347.09;;;13.47;100.00
37068;BME280;22982;42.848;25.468;2022-09-09T02:11:08;96346.03;;;13.24;100.00
37068;BME280;22982;42.848;25.468;2022-09-09T02:16:24;96320.34;;;13.02;100.00
37068;BME280;22982;42.848;25.468;2022-09-09T02:21:31;96327.31;;;13.16;100.00
37068;BME280;22982;42.848;25.468;2022-09-09T02:26:42;96334.78;;;13.35;100.00
37068;BME280;22982;42.848;25.468;2022-09-09T02:31:49;96336.69;;;13.33;100.00
37068;BME280;22982;42.848;25.468;2022-09-09T02:36:59;96338.25;;;13.23;100.00
37068;BME280;22982;42.848;25.468;2022-09-09T02:42:04;96338.88;;;13.26;100.00
37068;BME280;22982;42.848;25.468;2022-09-09T02:47:16;96345.63;;;13.17;100.00
37068;BME280;22982;42.848;25.468;2022-09-09T02:53:16;96329.50;;;13.22;100.00
37068;BME280;22982;42.848;25.468;2022-09-09T02:58:20;96332.22;;;13.20;100.00
37068;BME280;22982;42.848;25.468;2022-09-09T03:03:41;96320.69;;;13.10;100.00
37068;BME280;22982;42.848;25.468;2022-09-09T03:08:48;96320.69;;;13.10;100.00
37068;BME280;22982;42.848;25.468;2022-09-09T03:13:57;96322.69;;;12.94;100.00
37068;BME280;22982;42.848;25.468;2022-09-09T03:19:02;96325.19;;;12.82;100.00
37068;BME280;22982;42.848;25.468;2022-09-09T03:24:08;96309.75;;;12.91;100.00
37068;BME280;22982;42.848;25.468;2022-09-09T03:29:12;96319.31;;;12.79;100.00
37068;BME280;22982;42.848;25.468;2022-09-09T03:34:15;96317.84;;;12.75;100.00
37068;BME280;22982;42.848;25.468;2022-09-09T03:39:18;96326.06;;;12.83;100.00
37068;BME280;22982;42.848;25.468;2022-09-09T03:44:20;96328.16;;;12.91;100.00
37068;BME280;22982;42.848;25.468;2022-09-09T03:49:23;96327.81;;;12.82;100.00
37068;BME280;22982;42.848;25.468;2022-09-09T03:54:26;96315.84;;;12.78;100.00
37068;BME280;22982;42.848;25.468;2022-09-09T03:59:30;96321.81;;;12.93;100.00
37068;BME280;22982;42.848;25.468;2022-09-09T04:04:32;96342.88;;;13.06;100.00
37068;BME280;22982;42.848;25.468;2022-09-09T04:09:35;96337.22;;;13.12;100.00
37068;BME280;22982;42.848;25.468;2022-09-09T04:14:37;96335.09;;;13.17;100.00
37068;BME280;22982;42.848;25.468;2022-09-09T04:19:40;96344.91;;;13.15;100.00
37068;BME280;22982;42.848;25.468;2022-09-09T04:24:44;96327.63;;;13.11;100.00
37068;BME280;22982;42.848;25.468;2022-09-09T04:29:52;96333.38;;;13.29;100.00
37068;BME280;22982;42.848;25.468;2022-09-09T04:34:54;96340.34;;;13.30;100.00
37068;BME280;22982;42.848;25.468;2022-09-09T04:39:57;96350.38;;;13.38;100.00
37068;BME280;22982;42.848;25.468;2022-09-09T04:45:00;96336.78;;;13.18;100.00
37068;BME280;22982;42.848;25.468;2022-09-09T04:50:04;96340.56;;;13.27;100.00
37068;BME280;22982;42.848;25.468;2022-09-09T04:55:07;96343.59;;;13.59;100.00
37068;BME280;22982;42.848;25.468;2022-09-09T05:00:10;96346.00;;;13.63;100.00
37068;BME280;22982;42.848;25.468;2022-09-09T05:05:15;96347.00;;;13.73;100.00
37068;BME280;22982;42.848;25.468;2022-09-09T05:10:17;96334.13;;;13.81;100.00
37068;BME280;22982;42.848;25.468;2022-09-09T05:15:21;96330.00;;;14.14;100.00
37068;BME280;22982;42.848;25.468;2022-09-09T05:20:23;96336.66;;;14.31;100.00
37068;BME280;22982;42.848;25.468;2022-09-09T05:25:25;96338.94;;;14.35;100.00
37068;BME280;22982;42.848;25.468;2022-09-09T05:30:29;96341.72;;;14.58;100.00
37068;BME280;22982;42.848;25.468;2022-09-09T05:35:34;96335.66;;;14.91;100.00
37068;BME280;22982;42.848;25.468;2022-09-09T05:40:36;96334.25;;;15.32;100.00
37068;BME280;22982;42.848;25.468;2022-09-09T05:45:39;96312.19;;;19.32;89.28
37068;BME280;22982;42.848;25.468;2022-09-09T05:50:42;96282.97;;;25.83;54.68
37068;BME280;22982;42.848;25.468;2022-09-09T05:55:44;96279.00;;;30.00;41.12
37068;BME280;22982;42.848;25.468;2022-09-09T06:00:47;96284.81;;;32.23;36.33
37068;BME280;22982;42.848;25.468;2022-09-09T06:05:57;96253.91;;;34.37;31.54
37068;BME280;22982;42.848;25.468;2022-09-09T06:11:03;96260.69;;;34.80;30.60
37068;BME280;22982;42.848;25.468;2022-09-09T06:16:12;96220.09;;;35.74;28.94
37068;BME280;22982;42.848;25.468;2022-09-09T06:21:22;96233.66;;;37.32;27.52
37068;BME280;22982;42.848;25.468;2022-09-09T06:26:33;96230.72;;;37.06;27.30
37068;BME280;22982;42.848;25.468;2022-09-09T06:31:38;96228.81;;;38.02;26.22
37068;BME280;22982;42.848;25.468;2022-09-09T06:36:47;96223.75;;;36.07;28.41
37068;BME280;22982;42.848;25.468;2022-09-09T06:41:50;96232.88;;;36.39;29.10
37068;BME280;22982;42.848;25.468;2022-09-09T06:47:30;96222.72;;;37.32;27.14
37068;BME280;22982;42.848;25.468;2022-09-09T06:52:33;96230.69;;;37.44;27.02
37068;BME280;22982;42.848;25.468;2022-09-09T06:57:36;96219.50;;;37.98;25.85
37068;BME280;22982;42.848;25.468;2022-09-09T07:02:44;96209.16;;;37.10;27.47
37068;BME280;22982;42.848;25.468;2022-09-09T07:07:48;96204.56;;;37.15;26.89
37068;BME280;22982;42.848;25.468;2022-09-09T07:12:53;96215.81;;;35.39;29.32
37068;BME280;22982;42.848;25.468;2022-09-09T07:18:00;96217.97;;;34.69;30.72
37068;BME280;22982;42.848;25.468;2022-09-09T07:23:04;96221.03;;;33.98;32.66
37068;BME280;22982;42.848;25.468;2022-09-09T07:28:06;96214.38;;;33.77;34.28
37068;BME280;22982;42.848;25.468;2022-09-09T07:33:09;96193.28;;;32.96;34.79
37068;BME280;22982;42.848;25.468;2022-09-09T07:38:11;96210.25;;;33.51;36.21
37068;BME280;22982;42.848;25.468;2022-09-09T07:43:14;96203.16;;;33.73;35.08
37068;BME280;22982;42.848;25.468;2022-09-09T07:48:19;96199.03;;;33.59;36.86
37068;BME280;22982;42.848;25.468;2022-09-09T07:53:22;96202.97;;;33.92;34.75
37068;BME280;22982;42.848;25.468;2022-09-09T07:58:25;96205.00;;;33.85;35.31
37068;BME280;22982;42.848;25.468;2022-09-09T08:03:28;96205.81;;;33.85;37.13
37068;BME280;22982;42.848;25.468;2022-09-09T08:08:30;96195.81;;;34.77;35.75
37068;BME280;22982;42.848;25.468;2022-09-09T08:13:34;96203.00;;;34.55;34.64
37068;BME280;22982;42.848;25.468;2022-09-09T08:18:37;96197.00;;;34.52;33.38
37068;BME280;22982;42.848;25.468;2022-09-09T08:23:41;96199.84;;;34.29;34.71
37068;BME280;22982;42.848;25.468;2022-09-09T08:28:44;96183.25;;;35.32;27.97
37068;BME280;22982;42.848;25.468;2022-09-09T08:33:48;96177.06;;;35.81;27.95
37068;BME280;22982;42.848;25.468;2022-09-09T08:38:57;96161.59;;;35.64;27.43
37068;BME280;22982;42.848;25.468;2022-09-09T08:54:36;96169.69;;;34.30;26.18
37068;BME280;22982;42.848;25.468;2022-09-09T08:59:55;96157.97;;;34.98;25.49
37068;BME280;22982;42.848;25.468;2022-09-09T09:10:28;96152.19;;;34.43;26.30
37068;BME280;22982;42.848;25.468;2022-09-09T09:16:00;96150.78;;;34.24;27.05
37068;BME280;22982;42.848;25.468;2022-09-09T09:21:16;96152.66;;;35.08;26.75
37068;BME280;22982;42.848;25.468;2022-09-09T09:26:42;96143.81;;;33.99;27.86
37068;BME280;22982;42.848;25.468;2022-09-09T09:31:48;96124.69;;;33.65;28.02
37068;BME280;22982;42.848;25.468;2022-09-09T09:36:57;96150.28;;;32.93;29.37
37068;BME280;22982;42.848;25.468;2022-09-09T09:42:15;96140.28;;;34.78;27.27
37068;BME280;22982;42.848;25.468;2022-09-09T09:47:24;96118.19;;;36.12;26.12
37068;BME280;22982;42.848;25.468;2022-09-09T09:52:57;96114.75;;;36.54;25.42
37068;BME280;22982;42.848;25.468;2022-09-09T09:58:04;96130.69;;;36.30;25.92
37068;BME280;22982;42.848;25.468;2022-09-09T10:03:30;96117.50;;;35.06;27.50
37068;BME280;22982;42.848;25.468;2022-09-09T10:08:44;96125.50;;;35.13;27.47
37068;BME280;22982;42.848;25.468;2022-09-09T10:13:54;96134.88;;;36.16;25.79
37068;BME280;22982;42.848;25.468;2022-09-09T10:24:39;96138.94;;;34.30;27.81
37068;BME280;22982;42.848;25.468;2022-09-09T10:30:03;96122.06;;;34.67;27.98
37068;BME280;22982;42.848;25.468;2022-09-09T10:35:12;96144.59;;;35.57;27.30
37068;BME280;22982;42.848;25.468;2022-09-09T10:55:31;96135.28;;;33.26;30.57
37068;BME280;22982;42.848;25.468;2022-09-09T11:00:41;96141.22;;;33.23;29.40
37068;BME280;22982;42.848;25.468;2022-09-09T11:21:31;96140.81;;;32.37;31.45
37068;BME280;22982;42.848;25.468;2022-09-09T11:26:50;96118.09;;;32.85;30.85
37068;BME280;22982;42.848;25.468;2022-09-09T11:32:04;96133.97;;;32.34;31.92
37068;BME280;22982;42.848;25.468;2022-09-09T11:52:43;96117.91;;;31.42;33.56
37068;BME280;22982;42.848;25.468;2022-09-09T11:57:47;96107.50;;;31.76;32.46
37068;BME280;22982;42.848;25.468;2022-09-09T12:02:50;96087.03;;;31.50;32.72
37068;BME280;22982;42.848;25.468;2022-09-09T12:07:56;96086.47;;;30.92;33.15
37068;BME280;22982;42.848;25.468;2022-09-09T12:13:20;96078.13;;;31.42;33.68
37068;BME280;22982;42.848;25.468;2022-09-09T12:18:46;96096.38;;;30.98;33.99
37068;BME280;22982;42.848;25.468;2022-09-09T12:34:33;96093.41;;;30.12;35.79
37068;BME280;22982;42.848;25.468;2022-09-09T12:39:43;96088.84;;;30.31;35.25
37068;BME280;22982;42.848;25.468;2022-09-09T12:44:58;96078.44;;;30.10;36.95
37068;BME280;22982;42.848;25.468;2022-09-09T12:50:00;96078.03;;;30.38;35.75
37068;BME280;22982;42.848;25.468;2022-09-09T12:55:05;96064.50;;;30.31;36.98
37068;BME280;22982;42.848;25.468;2022-09-09T13:13:54;96051.78;;;30.39;39.49
37068;BME280;22982;42.848;25.468;2022-09-09T13:19:09;96069.84;;;29.94;39.44
37068;BME280;22982;42.848;25.468;2022-09-09T13:24:33;96069.78;;;29.69;39.11
37068;BME280;22982;42.848;25.468;2022-09-09T13:29:36;96064.00;;;29.27;39.80
37068;BME280;22982;42.848;25.468;2022-09-09T13:34:39;96057.13;;;29.25;40.58
37068;BME280;22982;42.848;25.468;2022-09-09T13:39:51;96054.38;;;29.38;39.38
37068;BME280;22982;42.848;25.468;2022-09-09T13:44:58;96047.56;;;29.29;38.66
37068;BME280;22982;42.848;25.468;2022-09-09T13:50:27;96052.28;;;29.40;39.76
37068;BME280;22982;42.848;25.468;2022-09-09T13:55:29;96032.59;;;29.33;41.50
37068;BME280;22982;42.848;25.468;2022-09-09T14:00:34;96053.09;;;29.47;40.68
37068;BME280;22982;42.848;25.468;2022-09-09T14:05:37;96044.66;;;29.30;41.51
37068;BME280;22982;42.848;25.468;2022-09-09T14:10:39;96019.19;;;29.51;40.33
37068;BME280;22982;42.848;25.468;2022-09-09T14:15:41;96018.66;;;30.00;40.69
37068;BME280;22982;42.848;25.468;2022-09-09T14:20:44;96026.28;;;30.03;41.56
37068;BME280;22982;42.848;25.468;2022-09-09T14:25:46;96044.69;;;29.55;40.82
37068;BME280;22982;42.848;25.468;2022-09-09T14:30:48;96031.19;;;29.24;41.40
37068;BME280;22982;42.848;25.468;2022-09-09T14:35:56;96040.25;;;29.36;47.02
37068;BME280;22982;42.848;25.468;2022-09-09T14:40:58;96047.50;;;28.90;50.69
37068;BME280;22982;42.848;25.468;2022-09-09T14:46:07;96043.88;;;28.58;52.79
37068;BME280;22982;42.848;25.468;2022-09-09T14:51:16;96058.00;;;28.26;51.47
37068;BME280;22982;42.848;25.468;2022-09-09T14:56:23;96058.59;;;27.82;51.01
37068;BME280;22982;42.848;25.468;2022-09-09T15:01:26;96048.03;;;27.87;48.06
37068;BME280;22982;42.848;25.468;2022-09-09T15:06:33;96053.63;;;27.72;49.84
37068;BME280;22982;42.848;25.468;2022-09-09T15:11:36;96075.16;;;27.79;49.33
37068;BME280;22982;42.848;25.468;2022-09-09T15:16:40;96059.78;;;27.39;50.50
37068;BME280;22982;42.848;25.468;2022-09-09T15:21:42;96078.88;;;27.03;48.94
37068;BME280;22982;42.848;25.468;2022-09-09T15:26:44;96050.47;;;26.93;50.45
37068;BME280;22982;42.848;25.468;2022-09-09T15:31:46;96083.34;;;26.82;50.65
37068;BME280;22982;42.848;25.468;2022-09-09T15:36:49;96064.94;;;26.58;50.41
37068;BME280;22982;42.848;25.468;2022-09-09T15:41:51;96070.75;;;26.54;53.84
37068;BME280;22982;42.848;25.468;2022-09-09T15:46:53;96072.56;;;26.19;53.07
37068;BME280;22982;42.848;25.468;2022-09-09T15:52:00;96085.50;;;26.09;60.41
37068;BME280;22982;42.848;25.468;2022-09-09T15:57:09;96087.81;;;25.90;64.53
37068;BME280;22982;42.848;25.468;2022-09-09T16:02:13;96067.09;;;25.41;63.28
37068;BME280;22982;42.848;25.468;2022-09-09T16:07:15;96099.34;;;25.26;66.26
37068;BME280;22982;42.848;25.468;2022-09-09T16:12:20;96092.13;;;24.97;73.00
37068;BME280;22982;42.848;25.468;2022-09-09T16:17:23;96085.41;;;24.71;74.93
37068;BME280;22982;42.848;25.468;2022-09-09T16:22:25;96094.53;;;24.47;77.34
37068;BME280;22982;42.848;25.468;2022-09-09T16:27:27;96109.56;;;24.33;79.00
37068;BME280;22982;42.848;25.468;2022-09-09T16:32:29;96099.59;;;24.12;76.07
37068;BME280;22982;42.848;25.468;2022-09-09T16:37:31;96100.59;;;24.11;79.40
37068;BME280;22982;42.848;25.468;2022-09-09T16:42:35;96123.22;;;23.85;79.72
37068;BME280;22982;42.848;25.468;2022-09-09T16:47:40;96102.91;;;23.68;78.89
37068;BME280;22982;42.848;25.468;2022-09-09T16:52:42;96121.50;;;23.61;79.83
37068;BME280;22982;42.848;25.468;2022-09-09T16:57:44;96128.38;;;23.64;82.78
37068;BME280;22982;42.848;25.468;2022-09-09T17:02:46;96117.66;;;23.01;83.73
37068;BME280;22982;42.848;25.468;2022-09-09T17:07:49;96126.50;;;23.02;85.39
37068;BME280;22982;42.848;25.468;2022-09-09T17:12:51;96133.38;;;22.96;86.18
37068;BME280;22982;42.848;25.468;2022-09-09T17:17:58;96129.56;;;22.90;87.19
37068;BME280;22982;42.848;25.468;2022-09-09T17:23:00;96133.19;;;22.50;92.10
37068;BME280;22982;42.848;25.468;2022-09-09T17:28:02;96138.16;;;22.61;92.21
37068;BME280;22982;42.848;25.468;2022-09-09T17:33:08;96125.34;;;22.48;94.60
37068;BME280;22982;42.848;25.468;2022-09-09T17:38:10;96133.53;;;22.06;92.60
37068;BME280;22982;42.848;25.468;2022-09-09T17:43:13;96161.41;;;22.20;97.92
37068;BME280;22982;42.848;25.468;2022-09-09T17:48:15;96149.25;;;22.33;96.13
37068;BME280;22982;42.848;25.468;2022-09-09T17:53:18;96154.91;;;22.14;100.00
37068;BME280;22982;42.848;25.468;2022-09-09T17:58:20;96173.94;;;22.03;96.59
37068;BME280;22982;42.848;25.468;2022-09-09T18:03:23;96167.91;;;21.76;100.00
37068;BME280;22982;42.848;25.468;2022-09-09T18:08:27;96180.41;;;21.25;97.63
37068;BME280;22982;42.848;25.468;2022-09-09T18:13:33;96183.56;;;21.28;97.52
37068;BME280;22982;42.848;25.468;2022-09-09T18:18:36;96177.06;;;21.22;98.14
37068;BME280;22982;42.848;25.468;2022-09-09T18:23:40;96193.72;;;21.16;99.76
37068;BME280;22982;42.848;25.468;2022-09-09T18:28:47;96189.06;;;20.84;100.00
37068;BME280;22982;42.848;25.468;2022-09-09T18:33:50;96195.72;;;20.88;100.00
37068;BME280;22982;42.848;25.468;2022-09-09T18:38:56;96197.88;;;20.84;100.00
37068;BME280;22982;42.848;25.468;2022-09-09T18:44:04;96210.53;;;20.82;100.00
37068;BME280;22982;42.848;25.468;2022-09-09T18:49:06;96206.50;;;20.34;100.00
37068;BME280;22982;42.848;25.468;2022-09-09T18:54:18;96201.81;;;20.28;100.00
37068;BME280;22982;42.848;25.468;2022-09-09T18:59:22;96198.91;;;20.39;100.00
37068;BME280;22982;42.848;25.468;2022-09-09T19:04:25;96208.97;;;20.27;100.00
37068;BME280;22982;42.848;25.468;2022-09-09T19:09:30;96194.81;;;20.27;100.00
37068;BME280;22982;42.848;25.468;2022-09-09T19:14:33;96203.00;;;20.07;100.00
37068;BME280;22982;42.848;25.468;2022-09-09T19:19:35;96182.91;;;19.95;100.00
37068;BME280;22982;42.848;25.468;2022-09-09T19:24:37;96187.88;;;19.44;100.00
37068;BME280;22982;42.848;25.468;2022-09-09T19:29:41;96176.56;;;19.42;100.00
37068;BME280;22982;42.848;25.468;2022-09-09T19:34:45;96185.09;;;19.46;100.00
37068;BME280;22982;42.848;25.468;2022-09-09T19:39:47;96185.63;;;19.22;100.00
37068;BME280;22982;42.848;25.468;2022-09-09T19:44:50;96176.28;;;19.18;100.00
37068;BME280;22982;42.848;25.468;2022-09-09T19:49:54;96177.56;;;19.13;100.00
37068;BME280;22982;42.848;25.468;2022-09-09T19:54:59;96163.88;;;18.71;100.00
37068;BME280;22982;42.848;25.468;2022-09-09T20:00:02;96170.97;;;18.90;100.00
37068;BME280;22982;42.848;25.468;2022-09-09T20:05:12;96166.81;;;18.68;100.00
37068;BME280;22982;42.848;25.468;2022-09-09T20:10:17;96157.03;;;18.68;100.00
37068;BME280;22982;42.848;25.468;2022-09-09T20:15:20;96148.84;;;18.52;100.00
37068;BME280;22982;42.848;25.468;2022-09-09T20:20:22;96165.84;;;18.22;100.00
37068;BME280;22982;42.848;25.468;2022-09-09T20:25:24;96139.19;;;18.04;100.00
37068;BME280;22982;42.848;25.468;2022-09-09T20:30:26;96143.38;;;17.96;100.00
37068;BME280;22982;42.848;25.468;2022-09-09T20:35:28;96155.78;;;18.06;100.00
37068;BME280;22982;42.848;25.468;2022-09-09T20:40:30;96142.38;;;18.17;100.00
37068;BME280;22982;42.848;25.468;2022-09-09T20:45:37;96142.94;;;18.01;100.00
37068;BME280;22982;42.848;25.468;2022-09-09T20:50:40;96151.03;;;17.60;100.00
37068;BME280;22982;42.848;25.468;2022-09-09T20:55:42;96156.78;;;17.66;100.00
37068;BME280;22982;42.848;25.468;2022-09-09T21:00:45;96155.78;;;17.76;100.00
37068;BME280;22982;42.848;25.468;2022-09-09T21:05:47;96154.16;;;17.85;100.00
37068;BME280;22982;42.848;25.468;2022-09-09T21:10:51;96129.28;;;17.57;100.00
37068;BME280;22982;42.848;25.468;2022-09-09T21:15:54;96151.88;;;17.71;100.00
37068;BME280;22982;42.848;25.468;2022-09-09T21:20:56;96145.44;;;17.54;100.00
37068;BME280;22982;42.848;25.468;2022-09-09T21:25:58;96149.91;;;17.53;100.00
37068;BME280;22982;42.848;25.468;2022-09-09T21:31:01;96141.56;;;17.68;100.00
37068;BME280;22982;42.848;25.468;2022-09-09T21:36:04;96131.59;;;17.31;100.00
37068;BME280;22982;42.848;25.468;2022-09-09T21:41:12;96132.59;;;17.30;100.00
37068;BME280;22982;42.848;25.468;2022-09-09T21:46:15;96138.19;;;17.36;100.00
37068;BME280;22982;42.848;25.468;2022-09-09T21:51:18;96126.97;;;16.63;100.00
37068;BME280;22982;42.848;25.468;2022-09-09T21:56:20;96135.97;;;16.51;100.00
37068;BME280;22982;42.848;25.468;2022-09-09T22:01:23;96137.41;;;16.64;100.00
37068;BME280;22982;42.848;25.468;2022-09-09T22:06:27;96142.41;;;16.89;100.00
37068;BME280;22982;42.848;25.468;2022-09-09T22:11:29;96129.50;;;17.15;100.00
37068;BME280;22982;42.848;25.468;2022-09-09T22:16:32;96121.84;;;17.21;100.00
37068;BME280;22982;42.848;25.468;2022-09-09T22:21:34;96121.44;;;17.16;100.00
37068;BME280;22982;42.848;25.468;2022-09-09T22:26:37;96124.69;;;16.89;100.00
37068;BME280;22982;42.848;25.468;2022-09-09T22:31:39;96119.09;;;16.82;100.00
37068;BME280;22982;42.848;25.468;2022-09-09T22:36:41;96130.28;;;16.55;100.00
37068;BME280;22982;42.848;25.468;2022-09-09T22:41:44;96118.56;;;16.58;100.00
37068;BME280;22982;42.848;25.468;2022-09-09T22:46:47;96106.13;;;16.39;100.00
37068;BME280;22982;42.848;25.468;2022-09-09T22:51:49;96115.00;;;16.69;100.00
37068;BME280;22982;42.848;25.468;2022-09-09T22:56:51;96105.41;;;16.68;100.00
37068;BME280;22982;42.848;25.468;2022-09-09T23:01:56;96089.44;;;16.48;100.00
37068;BME280;22982;42.848;25.468;2022-09-09T23:06:59;96096.25;;;16.20;100.00
37068;BME280;22982;42.848;25.468;2022-09-09T23:12:02;96086.50;;;16.20;100.00
37068;BME280;22982;42.848;25.468;2022-09-09T23:17:04;96089.69;;;16.45;100.00
37068;BME280;22982;42.848;25.468;2022-09-09T23:22:09;96078.94;;;16.37;100.00
37068;BME280;22982;42.848;25.468;2022-09-09T23:27:12;96101.53;;;16.41;100.00
37068;BME280;22982;42.848;25.468;2022-09-09T23:32:15;96097.25;;;16.50;100.00
37068;BME280;22982;42.848;25.468;2022-09-09T23:37:18;96083.38;;;16.36;100.00
37068;BME280;22982;42.848;25.468;2022-09-09T23:42:21;96082.81;;;16.33;100.00
37068;BME280;22982;42.848;25.468;2022-09-09T23:47:24;96071.78;;;16.27;100.00
37068;BME280;22982;42.848;25.468;2022-09-09T23:52:26;96091.28;;;16.26;100.00
37068;BME280;22982;42.848;25.468;2022-09-09T23:57:29;96089.69;;;16.14;100.00
